sensor_id;sensor_type;location;lat;lon;timestamp;P1;durP1;ratioP1;P2;durP2;ratioP2
33714;SDS011;20043;50.998;4.754;2023-09-18T00:01:59;9.32;;;5.90;;
33714;SDS011;20043;50.998;4.754;2023-09-18T00:04:24;9.95;;;5.93;;
33714;SDS011;20043;50.998;4.754;2023-09-18T00:06:50;9.00;;;5.82;;
33714;SDS011;20043;50.998;4.754;2023-09-18T00:09:16;11.98;;;5.97;;
33714;SDS011;20043;50.998;4.754;2023-09-18T00:11:42;7.43;;;5.72;;
33714;SDS011;20043;50.998;4.754;2023-09-18T00:14:07;10.32;;;5.88;;
33714;SDS011;20043;50.998;4.754;2023-09-18T00:16:34;11.00;;;6.22;;
33714;SDS011;20043;50.998;4.754;2023-09-18T00:19:00;12.13;;;6.40;;
33714;SDS011;20043;50.998;4.754;2023-09-18T00:21:26;11.68;;;6.40;;
33714;SDS011;20043;50.998;4.754;2023-09-18T00:23:52;10.05;;;5.95;;
33714;SDS011;20043;50.998;4.754;2023-09-18T00:26:17;10.35;;;5.93;;
33714;SDS011;20043;50.998;4.754;2023-09-18T00:28:43;12.52;;;6.07;;
33714;SDS011;20043;50.998;4.754;2023-09-18T00:31:08;9.48;;;6.22;;
33714;SDS011;20043;50.998;4.754;2023-09-18T00:33:34;10.23;;;5.47;;
33714;SDS011;20043;50.998;4.754;2023-09-18T00:36:00;11.88;;;6.10;;
33714;SDS011;20043;50.998;4.754;2023-09-18T00:38:26;9.63;;;6.13;;
33714;SDS011;20043;50.998;4.754;2023-09-18T00:40:51;12.80;;;6.47;;
33714;SDS011;20043;50.998;4.754;2023-09-18T00:43:17;10.40;;;6.60;;
33714;SDS011;20043;50.998;4.754;2023-09-18T00:45:44;10.20;;;6.43;;
33714;SDS011;20043;50.998;4.754;2023-09-18T00:48:11;11.63;;;6.80;;
33714;SDS011;20043;50.998;4.754;2023-09-18T00:50:39;13.50;;;6.57;;
33714;SDS011;20043;50.998;4.754;2023-09-18T00:53:05;9.38;;;7.28;;
33714;SDS011;20043;50.998;4.754;2023-09-18T00:55:33;10.57;;;7.35;;
33714;SDS011;20043;50.998;4.754;2023-09-18T00:58:01;14.60;;;7.60;;
33714;SDS011;20043;50.998;4.754;2023-09-18T01:00:27;11.77;;;6.70;;
33714;SDS011;20043;50.998;4.754;2023-09-18T01:02:53;10.88;;;7.22;;
33714;SDS011;20043;50.998;4.754;2023-09-18T01:05:18;14.80;;;7.05;;
33714;SDS011;20043;50.998;4.754;2023-09-18T01:07:45;11.70;;;7.20;;
33714;SDS011;20043;50.998;4.754;2023-09-18T01:10:11;11.07;;;7.03;;
33714;SDS011;20043;50.998;4.754;2023-09-18T01:15:40;14.20;;;7.07;;
33714;SDS011;20043;50.998;4.754;2023-09-18T01:18:13;14.60;;;7.30;;
33714;SDS011;20043;50.998;4.754;2023-09-18T01:20:39;13.30;;;7.68;;
33714;SDS011;20043;50.998;4.754;2023-09-18T01:23:04;16.00;;;7.55;;
33714;SDS011;20043;50.998;4.754;2023-09-18T01:25:30;13.13;;;7.03;;
33714;SDS011;20043;50.998;4.754;2023-09-18T01:27:58;16.67;;;7.47;;
33714;SDS011;20043;50.998;4.754;2023-09-18T01:30:24;12.63;;;8.95;;
33714;SDS011;20043;50.998;4.754;2023-09-18T01:32:49;22.45;;;8.57;;
33714;SDS011;20043;50.998;4.754;2023-09-18T01:35:16;13.20;;;7.55;;
33714;SDS011;20043;50.998;4.754;2023-09-18T01:37:42;16.45;;;7.53;;
33714;SDS011;20043;50.998;4.754;2023-09-18T01:40:09;19.88;;;8.30;;
33714;SDS011;20043;50.998;4.754;2023-09-18T01:42:36;14.05;;;7.35;;
33714;SDS011;20043;50.998;4.754;2023-09-18T01:45:02;15.57;;;7.07;;
33714;SDS011;20043;50.998;4.754;2023-09-18T01:47:30;12.98;;;7.80;;
33714;SDS011;20043;50.998;4.754;2023-09-18T01:49:56;18.20;;;8.07;;
33714;SDS011;20043;50.998;4.754;2023-09-18T01:52:21;15.63;;;7.47;;
33714;SDS011;20043;50.998;4.754;2023-09-18T01:54:47;16.63;;;7.85;;
33714;SDS011;20043;50.998;4.754;2023-09-18T01:57:13;18.13;;;7.53;;
33714;SDS011;20043;50.998;4.754;2023-09-18T01:59:38;17.73;;;8.40;;
33714;SDS011;20043;50.998;4.754;2023-09-18T02:02:04;17.17;;;8.73;;
33714;SDS011;20043;50.998;4.754;2023-09-18T02:04:32;14.02;;;8.82;;
33714;SDS011;20043;50.998;4.754;2023-09-18T02:06:58;16.75;;;9.07;;
33714;SDS011;20043;50.998;4.754;2023-09-18T02:09:24;19.45;;;7.95;;
33714;SDS011;20043;50.998;4.754;2023-09-18T02:11:49;18.90;;;8.35;;
33714;SDS011;20043;50.998;4.754;2023-09-18T02:14:15;15.43;;;8.40;;
33714;SDS011;20043;50.998;4.754;2023-09-18T02:16:41;14.18;;;7.88;;
33714;SDS011;20043;50.998;4.754;2023-09-18T02:19:11;17.65;;;8.43;;
33714;SDS011;20043;50.998;4.754;2023-09-18T02:21:40;15.23;;;7.70;;
33714;SDS011;20043;50.998;4.754;2023-09-18T02:24:06;14.25;;;7.78;;
33714;SDS011;20043;50.998;4.754;2023-09-18T02:26:32;18.10;;;8.68;;
33714;SDS011;20043;50.998;4.754;2023-09-18T02:28:59;12.50;;;7.35;;
33714;SDS011;20043;50.998;4.754;2023-09-18T02:31:25;24.60;;;8.55;;
33714;SDS011;20043;50.998;4.754;2023-09-18T02:33:52;15.30;;;8.20;;
33714;SDS011;20043;50.998;4.754;2023-09-18T02:36:17;16.75;;;8.48;;
33714;SDS011;20043;50.998;4.754;2023-09-18T02:38:43;15.75;;;8.05;;
33714;SDS011;20043;50.998;4.754;2023-09-18T02:41:09;18.85;;;8.82;;
33714;SDS011;20043;50.998;4.754;2023-09-18T02:43:35;15.82;;;8.13;;
33714;SDS011;20043;50.998;4.754;2023-09-18T02:46:02;17.65;;;8.80;;
33714;SDS011;20043;50.998;4.754;2023-09-18T02:48:30;15.57;;;8.30;;
33714;SDS011;20043;50.998;4.754;2023-09-18T02:50:56;19.05;;;9.52;;
33714;SDS011;20043;50.998;4.754;2023-09-18T02:53:23;17.70;;;9.38;;
33714;SDS011;20043;50.998;4.754;2023-09-18T02:55:53;16.45;;;9.10;;
33714;SDS011;20043;50.998;4.754;2023-09-18T02:58:20;16.67;;;8.77;;
33714;SDS011;20043;50.998;4.754;2023-09-18T03:00:47;14.65;;;8.95;;
33714;SDS011;20043;50.998;4.754;2023-09-18T03:03:15;18.95;;;8.93;;
33714;SDS011;20043;50.998;4.754;2023-09-18T03:05:41;17.63;;;8.55;;
33714;SDS011;20043;50.998;4.754;2023-09-18T03:08:08;13.63;;;8.18;;
33714;SDS011;20043;50.998;4.754;2023-09-18T03:10:34;17.15;;;9.00;;
33714;SDS011;20043;50.998;4.754;2023-09-18T03:13:01;13.20;;;8.07;;
33714;SDS011;20043;50.998;4.754;2023-09-18T03:15:27;17.38;;;9.88;;
33714;SDS011;20043;50.998;4.754;2023-09-18T03:18:00;13.07;;;8.95;;
33714;SDS011;20043;50.998;4.754;2023-09-18T03:20:27;20.38;;;9.27;;
33714;SDS011;20043;50.998;4.754;2023-09-18T03:22:54;13.80;;;9.02;;
33714;SDS011;20043;50.998;4.754;2023-09-18T03:25:21;13.25;;;8.35;;
33714;SDS011;20043;50.998;4.754;2023-09-18T03:27:48;13.35;;;8.38;;
33714;SDS011;20043;50.998;4.754;2023-09-18T03:30:16;13.27;;;7.85;;
33714;SDS011;20043;50.998;4.754;2023-09-18T03:32:42;13.48;;;7.75;;
33714;SDS011;20043;50.998;4.754;2023-09-18T03:35:08;10.85;;;6.80;;
33714;SDS011;20043;50.998;4.754;2023-09-18T03:37:47;14.40;;;7.53;;
33714;SDS011;20043;50.998;4.754;2023-09-18T03:40:13;11.07;;;6.97;;
33714;SDS011;20043;50.998;4.754;2023-09-18T03:42:40;10.98;;;6.65;;
33714;SDS011;20043;50.998;4.754;2023-09-18T03:45:06;11.75;;;6.93;;
33714;SDS011;20043;50.998;4.754;2023-09-18T03:47:36;10.52;;;6.32;;
33714;SDS011;20043;50.998;4.754;2023-09-18T03:50:06;9.05;;;6.13;;
33714;SDS011;20043;50.998;4.754;2023-09-18T03:52:32;11.05;;;6.38;;
33714;SDS011;20043;50.998;4.754;2023-09-18T03:54:58;11.13;;;5.80;;
33714;SDS011;20043;50.998;4.754;2023-09-18T03:57:23;10.63;;;6.38;;
33714;SDS011;20043;50.998;4.754;2023-09-18T03:59:49;14.00;;;6.00;;
33714;SDS011;20043;50.998;4.754;2023-09-18T04:02:15;10.40;;;5.10;;
33714;SDS011;20043;50.998;4.754;2023-09-18T04:04:41;7.90;;;5.30;;
33714;SDS011;20043;50.998;4.754;2023-09-18T04:07:06;12.75;;;5.18;;
33714;SDS011;20043;50.998;4.754;2023-09-18T04:09:33;8.77;;;4.60;;
33714;SDS011;20043;50.998;4.754;2023-09-18T04:12:02;9.80;;;4.50;;
33714;SDS011;20043;50.998;4.754;2023-09-18T04:14:30;11.15;;;4.30;;
33714;SDS011;20043;50.998;4.754;2023-09-18T04:16:55;6.68;;;3.60;;
33714;SDS011;20043;50.998;4.754;2023-09-18T04:19:21;4.18;;;2.55;;
33714;SDS011;20043;50.998;4.754;2023-09-18T04:21:47;5.60;;;2.78;;
33714;SDS011;20043;50.998;4.754;2023-09-18T04:24:13;4.57;;;2.88;;
33714;SDS011;20043;50.998;4.754;2023-09-18T04:26:38;6.38;;;2.60;;
33714;SDS011;20043;50.998;4.754;2023-09-18T04:29:04;2.80;;;2.33;;
33714;SDS011;20043;50.998;4.754;2023-09-18T04:31:30;3.72;;;2.20;;
33714;SDS011;20043;50.998;4.754;2023-09-18T04:33:56;5.15;;;2.08;;
33714;SDS011;20043;50.998;4.754;2023-09-18T04:36:22;6.25;;;2.03;;
33714;SDS011;20043;50.998;4.754;2023-09-18T04:38:55;5.05;;;2.17;;
33714;SDS011;20043;50.998;4.754;2023-09-18T04:41:20;5.18;;;2.03;;
33714;SDS011;20043;50.998;4.754;2023-09-18T04:43:46;7.10;;;2.08;;
33714;SDS011;20043;50.998;4.754;2023-09-18T04:46:12;6.18;;;2.42;;
33714;SDS011;20043;50.998;4.754;2023-09-18T04:48:38;3.78;;;2.00;;
33714;SDS011;20043;50.998;4.754;2023-09-18T04:51:03;3.00;;;1.92;;
33714;SDS011;20043;50.998;4.754;2023-09-18T04:53:30;5.28;;;1.95;;
33714;SDS011;20043;50.998;4.754;2023-09-18T04:55:56;7.05;;;2.00;;
33714;SDS011;20043;50.998;4.754;2023-09-18T04:58:22;3.00;;;1.75;;
33714;SDS011;20043;50.998;4.754;2023-09-18T05:00:57;7.45;;;2.00;;
33714;SDS011;20043;50.998;4.754;2023-09-18T05:03:24;5.07;;;2.30;;
33714;SDS011;20043;50.998;4.754;2023-09-18T05:05:56;6.25;;;2.08;;
33714;SDS011;20043;50.998;4.754;2023-09-18T05:08:22;4.38;;;2.00;;
33714;SDS011;20043;50.998;4.754;2023-09-18T05:10:47;8.07;;;2.47;;
33714;SDS011;20043;50.998;4.754;2023-09-18T05:13:13;6.43;;;2.17;;
33714;SDS011;20043;50.998;4.754;2023-09-18T05:15:39;4.70;;;1.92;;
33714;SDS011;20043;50.998;4.754;2023-09-18T05:18:04;6.88;;;2.05;;
33714;SDS011;20043;50.998;4.754;2023-09-18T05:20:30;4.38;;;2.22;;
33714;SDS011;20043;50.998;4.754;2023-09-18T05:22:57;7.60;;;2.00;;
33714;SDS011;20043;50.998;4.754;2023-09-18T05:25:24;5.05;;;1.90;;
33714;SDS011;20043;50.998;4.754;2023-09-18T05:27:51;5.18;;;2.15;;
33714;SDS011;20043;50.998;4.754;2023-09-18T05:30:21;6.55;;;2.10;;
33714;SDS011;20043;50.998;4.754;2023-09-18T05:32:53;6.38;;;2.13;;
33714;SDS011;20043;50.998;4.754;2023-09-18T05:35:19;5.70;;;1.73;;
33714;SDS011;20043;50.998;4.754;2023-09-18T05:37:46;6.22;;;2.20;;
33714;SDS011;20043;50.998;4.754;2023-09-18T05:40:12;4.10;;;2.10;;
33714;SDS011;20043;50.998;4.754;2023-09-18T05:42:39;5.63;;;2.22;;
33714;SDS011;20043;50.998;4.754;2023-09-18T05:45:08;10.15;;;2.63;;
33714;SDS011;20043;50.998;4.754;2023-09-18T05:47:34;5.47;;;2.28;;
33714;SDS011;20043;50.998;4.754;2023-09-18T05:50:01;5.72;;;1.85;;
33714;SDS011;20043;50.998;4.754;2023-09-18T05:52:28;7.57;;;2.17;;
33714;SDS011;20043;50.998;4.754;2023-09-18T05:54:54;6.68;;;1.98;;
33714;SDS011;20043;50.998;4.754;2023-09-18T05:57:20;10.63;;;2.58;;
33714;SDS011;20043;50.998;4.754;2023-09-18T05:59:45;3.55;;;2.20;;
33714;SDS011;20043;50.998;4.754;2023-09-18T06:02:11;6.30;;;2.10;;
33714;SDS011;20043;50.998;4.754;2023-09-18T06:04:37;4.05;;;1.65;;
33714;SDS011;20043;50.998;4.754;2023-09-18T06:07:06;6.97;;;2.20;;
33714;SDS011;20043;50.998;4.754;2023-09-18T06:09:32;4.32;;;1.77;;
33714;SDS011;20043;50.998;4.754;2023-09-18T06:11:57;6.72;;;2.10;;
33714;SDS011;20043;50.998;4.754;2023-09-18T06:14:24;4.57;;;2.00;;
33714;SDS011;20043;50.998;4.754;2023-09-18T06:16:50;5.78;;;1.80;;
33714;SDS011;20043;50.998;4.754;2023-09-18T06:19:16;7.05;;;2.10;;
33714;SDS011;20043;50.998;4.754;2023-09-18T06:21:44;7.35;;;1.98;;
33714;SDS011;20043;50.998;4.754;2023-09-18T06:24:10;5.05;;;2.38;;
33714;SDS011;20043;50.998;4.754;2023-09-18T06:26:35;4.93;;;1.80;;
33714;SDS011;20043;50.998;4.754;2023-09-18T06:29:01;3.47;;;1.92;;
33714;SDS011;20043;50.998;4.754;2023-09-18T06:31:27;5.97;;;2.30;;
33714;SDS011;20043;50.998;4.754;2023-09-18T06:33:53;4.47;;;2.17;;
33714;SDS011;20043;50.998;4.754;2023-09-18T06:36:19;5.30;;;2.20;;
33714;SDS011;20043;50.998;4.754;2023-09-18T06:38:44;6.10;;;1.90;;
33714;SDS011;20043;50.998;4.754;2023-09-18T06:41:10;5.28;;;1.77;;
33714;SDS011;20043;50.998;4.754;2023-09-18T06:43:36;5.15;;;2.13;;
33714;SDS011;20043;50.998;4.754;2023-09-18T06:46:01;4.90;;;1.75;;
33714;SDS011;20043;50.998;4.754;2023-09-18T06:48:27;4.82;;;2.05;;
33714;SDS011;20043;50.998;4.754;2023-09-18T06:50:57;4.18;;;2.10;;
33714;SDS011;20043;50.998;4.754;2023-09-18T06:53:23;5.90;;;1.90;;
33714;SDS011;20043;50.998;4.754;2023-09-18T06:55:49;4.93;;;2.17;;
33714;SDS011;20043;50.998;4.754;2023-09-18T06:58:14;6.93;;;1.95;;
33714;SDS011;20043;50.998;4.754;2023-09-18T07:00:40;5.53;;;2.13;;
33714;SDS011;20043;50.998;4.754;2023-09-18T07:03:05;4.07;;;2.00;;
33714;SDS011;20043;50.998;4.754;2023-09-18T07:05:31;3.85;;;1.60;;
33714;SDS011;20043;50.998;4.754;2023-09-18T07:07:57;3.80;;;1.90;;
33714;SDS011;20043;50.998;4.754;2023-09-18T07:10:22;3.97;;;2.00;;
33714;SDS011;20043;50.998;4.754;2023-09-18T07:12:48;4.85;;;1.90;;
33714;SDS011;20043;50.998;4.754;2023-09-18T07:15:14;3.00;;;1.73;;
33714;SDS011;20043;50.998;4.754;2023-09-18T07:17:40;5.40;;;1.80;;
33714;SDS011;20043;50.998;4.754;2023-09-18T07:20:05;7.97;;;1.85;;
33714;SDS011;20043;50.998;4.754;2023-09-18T07:22:38;4.55;;;2.00;;
33714;SDS011;20043;50.998;4.754;2023-09-18T07:25:10;7.45;;;2.05;;
33714;SDS011;20043;50.998;4.754;2023-09-18T07:27:36;8.27;;;2.35;;
33714;SDS011;20043;50.998;4.754;2023-09-18T07:30:03;5.50;;;1.95;;
33714;SDS011;20043;50.998;4.754;2023-09-18T07:32:30;5.25;;;1.88;;
33714;SDS011;20043;50.998;4.754;2023-09-18T07:34:55;6.40;;;2.10;;
33714;SDS011;20043;50.998;4.754;2023-09-18T07:37:21;7.05;;;2.33;;
33714;SDS011;20043;50.998;4.754;2023-09-18T07:39:47;6.38;;;2.30;;
33714;SDS011;20043;50.998;4.754;2023-09-18T07:42:17;4.60;;;2.00;;
33714;SDS011;20043;50.998;4.754;2023-09-18T07:44:42;6.25;;;2.35;;
33714;SDS011;20043;50.998;4.754;2023-09-18T07:47:08;6.57;;;2.13;;
33714;SDS011;20043;50.998;4.754;2023-09-18T07:49:33;8.23;;;2.30;;
33714;SDS011;20043;50.998;4.754;2023-09-18T07:51:59;11.80;;;2.20;;
33714;SDS011;20043;50.998;4.754;2023-09-18T07:54:25;7.63;;;2.45;;
33714;SDS011;20043;50.998;4.754;2023-09-18T07:56:50;3.10;;;2.05;;
33714;SDS011;20043;50.998;4.754;2023-09-18T07:59:16;4.90;;;1.90;;
33714;SDS011;20043;50.998;4.754;2023-09-18T08:01:42;5.45;;;1.90;;
33714;SDS011;20043;50.998;4.754;2023-09-18T08:04:08;7.13;;;2.38;;
33714;SDS011;20043;50.998;4.754;2023-09-18T08:06:33;6.72;;;1.90;;
33714;SDS011;20043;50.998;4.754;2023-09-18T08:09:00;6.07;;;1.98;;
33714;SDS011;20043;50.998;4.754;2023-09-18T08:11:25;8.45;;;2.20;;
33714;SDS011;20043;50.998;4.754;2023-09-18T08:13:51;4.57;;;2.03;;
33714;SDS011;20043;50.998;4.754;2023-09-18T08:16:16;5.82;;;2.10;;
33714;SDS011;20043;50.998;4.754;2023-09-18T08:18:42;9.57;;;2.20;;
33714;SDS011;20043;50.998;4.754;2023-09-18T08:21:08;4.45;;;2.03;;
33714;SDS011;20043;50.998;4.754;2023-09-18T08:23:37;6.22;;;2.00;;
33714;SDS011;20043;50.998;4.754;2023-09-18T08:26:03;6.38;;;2.10;;
33714;SDS011;20043;50.998;4.754;2023-09-18T08:28:29;5.28;;;2.08;;
33714;SDS011;20043;50.998;4.754;2023-09-18T08:30:55;8.52;;;2.05;;
33714;SDS011;20043;50.998;4.754;2023-09-18T08:33:26;3.20;;;1.92;;
33714;SDS011;20043;50.998;4.754;2023-09-18T08:35:52;4.85;;;2.20;;
33714;SDS011;20043;50.998;4.754;2023-09-18T08:38:18;6.05;;;2.15;;
33714;SDS011;20043;50.998;4.754;2023-09-18T08:40:43;5.88;;;2.20;;
33714;SDS011;20043;50.998;4.754;2023-09-18T08:43:10;6.50;;;2.67;;
33714;SDS011;20043;50.998;4.754;2023-09-18T08:45:55;8.55;;;2.40;;
33714;SDS011;20043;50.998;4.754;2023-09-18T08:48:26;11.70;;;2.35;;
33714;SDS011;20043;50.998;4.754;2023-09-18T08:50:59;4.82;;;1.98;;
33714;SDS011;20043;50.998;4.754;2023-09-18T08:53:33;3.75;;;2.17;;
33714;SDS011;20043;50.998;4.754;2023-09-18T08:56:00;5.30;;;2.05;;
33714;SDS011;20043;50.998;4.754;2023-09-18T08:58:35;6.07;;;2.33;;
33714;SDS011;20043;50.998;4.754;2023-09-18T09:03:31;10.60;;;2.55;;
33714;SDS011;20043;50.998;4.754;2023-09-18T09:05:59;5.85;;;2.05;;
33714;SDS011;20043;50.998;4.754;2023-09-18T09:08:27;8.23;;;2.63;;
33714;SDS011;20043;50.998;4.754;2023-09-18T09:10:53;9.00;;;2.80;;
33714;SDS011;20043;50.998;4.754;2023-09-18T09:13:19;4.30;;;2.40;;
33714;SDS011;20043;50.998;4.754;2023-09-18T09:15:51;7.95;;;2.33;;
33714;SDS011;20043;50.998;4.754;2023-09-18T09:18:25;9.90;;;2.70;;
33714;SDS011;20043;50.998;4.754;2023-09-18T09:20:57;10.90;;;2.60;;
33714;SDS011;20043;50.998;4.754;2023-09-18T09:23:25;8.55;;;3.03;;
33714;SDS011;20043;50.998;4.754;2023-09-18T09:25:52;7.60;;;2.60;;
33714;SDS011;20043;50.998;4.754;2023-09-18T09:28:29;5.95;;;2.67;;
33714;SDS011;20043;50.998;4.754;2023-09-18T09:31:01;7.63;;;2.50;;
33714;SDS011;20043;50.998;4.754;2023-09-18T09:33:28;4.57;;;2.10;;
33714;SDS011;20043;50.998;4.754;2023-09-18T09:35:54;8.38;;;2.53;;
33714;SDS011;20043;50.998;4.754;2023-09-18T09:38:22;15.27;;;2.88;;
33714;SDS011;20043;50.998;4.754;2023-09-18T09:40:58;7.22;;;2.60;;
33714;SDS011;20043;50.998;4.754;2023-09-18T09:43:25;7.50;;;2.63;;
33714;SDS011;20043;50.998;4.754;2023-09-18T09:45:58;6.22;;;2.50;;
33714;SDS011;20043;50.998;4.754;2023-09-18T09:48:25;9.95;;;2.83;;
33714;SDS011;20043;50.998;4.754;2023-09-18T09:50:51;5.47;;;2.60;;
33714;SDS011;20043;50.998;4.754;2023-09-18T09:53:20;13.60;;;2.95;;
33714;SDS011;20043;50.998;4.754;2023-09-18T09:56:09;9.82;;;2.75;;
33714;SDS011;20043;50.998;4.754;2023-09-18T09:58:35;9.60;;;2.85;;
33714;SDS011;20043;50.998;4.754;2023-09-18T10:01:02;9.98;;;3.20;;
33714;SDS011;20043;50.998;4.754;2023-09-18T10:03:35;6.55;;;2.53;;
33714;SDS011;20043;50.998;4.754;2023-09-18T10:06:03;8.48;;;3.08;;
33714;SDS011;20043;50.998;4.754;2023-09-18T10:08:30;7.50;;;3.05;;
33714;SDS011;20043;50.998;4.754;2023-09-18T10:11:04;9.02;;;3.00;;
33714;SDS011;20043;50.998;4.754;2023-09-18T10:16:05;11.32;;;2.80;;
33714;SDS011;20043;50.998;4.754;2023-09-18T10:24:17;5.97;;;3.00;;
33714;SDS011;20043;50.998;4.754;2023-09-18T10:26:55;8.45;;;2.55;;
33714;SDS011;20043;50.998;4.754;2023-09-18T10:29:21;10.02;;;3.15;;
33714;SDS011;20043;50.998;4.754;2023-09-18T10:31:48;5.18;;;2.85;;
33714;SDS011;20043;50.998;4.754;2023-09-18T10:34:22;7.43;;;2.28;;
33714;SDS011;20043;50.998;4.754;2023-09-18T10:36:50;7.72;;;2.70;;
33714;SDS011;20043;50.998;4.754;2023-09-18T10:39:17;3.78;;;2.35;;
33714;SDS011;20043;50.998;4.754;2023-09-18T10:41:51;8.43;;;2.92;;
33714;SDS011;20043;50.998;4.754;2023-09-18T10:44:17;9.45;;;2.53;;
33714;SDS011;20043;50.998;4.754;2023-09-18T10:46:47;9.00;;;2.72;;
33714;SDS011;20043;50.998;4.754;2023-09-18T10:49:14;10.98;;;3.13;;
33714;SDS011;20043;50.998;4.754;2023-09-18T10:51:41;20.70;;;7.75;;
33714;SDS011;20043;50.998;4.754;2023-09-18T10:54:11;7.90;;;3.08;;
33714;SDS011;20043;50.998;4.754;2023-09-18T10:56:41;7.15;;;3.08;;
33714;SDS011;20043;50.998;4.754;2023-09-18T10:59:07;8.23;;;2.55;;
33714;SDS011;20043;50.998;4.754;2023-09-18T11:01:36;7.32;;;2.88;;
33714;SDS011;20043;50.998;4.754;2023-09-18T11:04:04;7.43;;;2.63;;
33714;SDS011;20043;50.998;4.754;2023-09-18T11:09:19;9.45;;;2.83;;
33714;SDS011;20043;50.998;4.754;2023-09-18T11:11:45;14.15;;;3.50;;
33714;SDS011;20043;50.998;4.754;2023-09-18T11:14:13;5.70;;;2.50;;
33714;SDS011;20043;50.998;4.754;2023-09-18T11:16:40;7.95;;;2.70;;
33714;SDS011;20043;50.998;4.754;2023-09-18T11:19:10;6.85;;;2.97;;
33714;SDS011;20043;50.998;4.754;2023-09-18T11:21:36;6.50;;;2.65;;
33714;SDS011;20043;50.998;4.754;2023-09-18T11:24:06;7.05;;;2.58;;
33714;SDS011;20043;50.998;4.754;2023-09-18T11:26:46;9.82;;;2.75;;
33714;SDS011;20043;50.998;4.754;2023-09-18T11:29:16;6.55;;;2.35;;
33714;SDS011;20043;50.998;4.754;2023-09-18T11:31:47;5.30;;;2.30;;
33714;SDS011;20043;50.998;4.754;2023-09-18T11:34:19;7.18;;;2.50;;
33714;SDS011;20043;50.998;4.754;2023-09-18T11:36:56;5.65;;;2.40;;
33714;SDS011;20043;50.998;4.754;2023-09-18T11:39:38;7.45;;;2.55;;
33714;SDS011;20043;50.998;4.754;2023-09-18T11:42:26;6.80;;;2.40;;
33714;SDS011;20043;50.998;4.754;2023-09-18T11:44:53;3.55;;;2.08;;
33714;SDS011;20043;50.998;4.754;2023-09-18T11:47:24;7.10;;;2.30;;
33714;SDS011;20043;50.998;4.754;2023-09-18T11:49:58;6.25;;;2.15;;
33714;SDS011;20043;50.998;4.754;2023-09-18T11:52:25;6.63;;;2.63;;
33714;SDS011;20043;50.998;4.754;2023-09-18T11:54:57;7.43;;;2.40;;
33714;SDS011;20043;50.998;4.754;2023-09-18T11:57:23;6.03;;;2.70;;
33714;SDS011;20043;50.998;4.754;2023-09-18T11:59:50;9.40;;;2.53;;
33714;SDS011;20043;50.998;4.754;2023-09-18T12:02:27;5.70;;;2.25;;
33714;SDS011;20043;50.998;4.754;2023-09-18T12:04:55;7.47;;;2.50;;
33714;SDS011;20043;50.998;4.754;2023-09-18T12:07:21;16.95;;;2.50;;
33714;SDS011;20043;50.998;4.754;2023-09-18T12:09:48;6.47;;;2.10;;
33714;SDS011;20043;50.998;4.754;2023-09-18T12:12:14;5.60;;;2.08;;
33714;SDS011;20043;50.998;4.754;2023-09-18T12:14:41;6.47;;;2.13;;
33714;SDS011;20043;50.998;4.754;2023-09-18T12:17:12;5.30;;;2.00;;
33714;SDS011;20043;50.998;4.754;2023-09-18T12:19:49;4.05;;;1.90;;
33714;SDS011;20043;50.998;4.754;2023-09-18T12:22:25;6.00;;;1.95;;
33714;SDS011;20043;50.998;4.754;2023-09-18T12:24:52;7.15;;;2.33;;
33714;SDS011;20043;50.998;4.754;2023-09-18T12:27:19;4.55;;;1.92;;
33714;SDS011;20043;50.998;4.754;2023-09-18T12:29:45;7.47;;;2.10;;
33714;SDS011;20043;50.998;4.754;2023-09-18T12:32:12;6.75;;;2.33;;
33714;SDS011;20043;50.998;4.754;2023-09-18T12:34:40;4.75;;;2.03;;
33714;SDS011;20043;50.998;4.754;2023-09-18T12:37:08;6.38;;;1.80;;
33714;SDS011;20043;50.998;4.754;2023-09-18T12:39:36;4.32;;;2.10;;
33714;SDS011;20043;50.998;4.754;2023-09-18T12:42:02;6.97;;;2.08;;
33714;SDS011;20043;50.998;4.754;2023-09-18T12:44:29;7.32;;;1.92;;
33714;SDS011;20043;50.998;4.754;2023-09-18T12:46:55;3.85;;;1.90;;
33714;SDS011;20043;50.998;4.754;2023-09-18T12:49:21;5.55;;;2.10;;
33714;SDS011;20043;50.998;4.754;2023-09-18T12:52:08;5.50;;;2.40;;
33714;SDS011;20043;50.998;4.754;2023-09-18T12:57:19;11.80;;;2.17;;
33714;SDS011;20043;50.998;4.754;2023-09-18T12:59:45;5.82;;;1.90;;
33714;SDS011;20043;50.998;4.754;2023-09-18T13:02:15;6.13;;;1.90;;
33714;SDS011;20043;50.998;4.754;2023-09-18T13:04:47;8.82;;;2.15;;
33714;SDS011;20043;50.998;4.754;2023-09-18T13:07:16;4.20;;;1.97;;
33714;SDS011;20043;50.998;4.754;2023-09-18T13:09:57;6.05;;;2.15;;
33714;SDS011;20043;50.998;4.754;2023-09-18T13:12:42;7.00;;;2.00;;
33714;SDS011;20043;50.998;4.754;2023-09-18T13:15:11;5.53;;;1.90;;
33714;SDS011;20043;50.998;4.754;2023-09-18T13:20:10;8.85;;;1.95;;
33714;SDS011;20043;50.998;4.754;2023-09-18T13:22:36;4.88;;;1.67;;
33714;SDS011;20043;50.998;4.754;2023-09-18T13:25:04;5.72;;;2.10;;
33714;SDS011;20043;50.998;4.754;2023-09-18T13:27:32;5.88;;;1.95;;
33714;SDS011;20043;50.998;4.754;2023-09-18T13:29:58;7.88;;;1.90;;
33714;SDS011;20043;50.998;4.754;2023-09-18T13:32:31;8.32;;;2.40;;
33714;SDS011;20043;50.998;4.754;2023-09-18T13:34:58;8.45;;;2.00;;
33714;SDS011;20043;50.998;4.754;2023-09-18T13:37:24;5.97;;;1.90;;
33714;SDS011;20043;50.998;4.754;2023-09-18T13:39:51;7.57;;;2.10;;
33714;SDS011;20043;50.998;4.754;2023-09-18T13:42:16;6.05;;;1.70;;
33714;SDS011;20043;50.998;4.754;2023-09-18T13:44:42;5.90;;;1.88;;
33714;SDS011;20043;50.998;4.754;2023-09-18T13:47:08;9.23;;;2.08;;
33714;SDS011;20043;50.998;4.754;2023-09-18T13:49:33;3.80;;;2.10;;
33714;SDS011;20043;50.998;4.754;2023-09-18T13:51:59;9.50;;;1.95;;
33714;SDS011;20043;50.998;4.754;2023-09-18T13:54:25;5.32;;;1.90;;
33714;SDS011;20043;50.998;4.754;2023-09-18T13:56:51;9.75;;;1.88;;
33714;SDS011;20043;50.998;4.754;2023-09-18T13:59:16;12.65;;;2.47;;
33714;SDS011;20043;50.998;4.754;2023-09-18T14:01:42;2.88;;;1.77;;
33714;SDS011;20043;50.998;4.754;2023-09-18T14:04:07;7.55;;;2.00;;
33714;SDS011;20043;50.998;4.754;2023-09-18T14:06:33;5.90;;;1.77;;
33714;SDS011;20043;50.998;4.754;2023-09-18T14:08:59;3.35;;;1.60;;
33714;SDS011;20043;50.998;4.754;2023-09-18T14:11:25;5.82;;;1.88;;
33714;SDS011;20043;50.998;4.754;2023-09-18T14:13:51;3.60;;;1.67;;
33714;SDS011;20043;50.998;4.754;2023-09-18T14:16:17;6.35;;;1.65;;
33714;SDS011;20043;50.998;4.754;2023-09-18T14:18:42;6.82;;;1.70;;
33714;SDS011;20043;50.998;4.754;2023-09-18T14:21:08;4.22;;;1.48;;
33714;SDS011;20043;50.998;4.754;2023-09-18T14:23:34;5.38;;;1.77;;
33714;SDS011;20043;50.998;4.754;2023-09-18T14:25:59;9.93;;;1.70;;
33714;SDS011;20043;50.998;4.754;2023-09-18T14:28:26;9.30;;;1.85;;
33714;SDS011;20043;50.998;4.754;2023-09-18T14:30:51;7.18;;;2.08;;
33714;SDS011;20043;50.998;4.754;2023-09-18T14:33:17;5.95;;;1.70;;
33714;SDS011;20043;50.998;4.754;2023-09-18T14:35:43;12.02;;;1.77;;
33714;SDS011;20043;50.998;4.754;2023-09-18T14:38:09;7.25;;;1.80;;
33714;SDS011;20043;50.998;4.754;2023-09-18T14:40:40;9.38;;;1.70;;
33714;SDS011;20043;50.998;4.754;2023-09-18T14:43:07;5.13;;;2.00;;
33714;SDS011;20043;50.998;4.754;2023-09-18T14:45:33;5.20;;;1.73;;
33714;SDS011;20043;50.998;4.754;2023-09-18T14:47:59;5.45;;;2.00;;
33714;SDS011;20043;50.998;4.754;2023-09-18T14:50:25;5.50;;;1.75;;
33714;SDS011;20043;50.998;4.754;2023-09-18T14:52:51;6.45;;;1.73;;
33714;SDS011;20043;50.998;4.754;2023-09-18T14:55:16;3.33;;;1.52;;
33714;SDS011;20043;50.998;4.754;2023-09-18T14:57:42;3.92;;;1.75;;
33714;SDS011;20043;50.998;4.754;2023-09-18T15:00:08;6.47;;;1.70;;
33714;SDS011;20043;50.998;4.754;2023-09-18T15:02:34;6.50;;;2.17;;
33714;SDS011;20043;50.998;4.754;2023-09-18T15:05:00;8.77;;;1.90;;
33714;SDS011;20043;50.998;4.754;2023-09-18T15:07:26;18.25;;;2.72;;